createdAt,value
2019-05-17T07:44:31.993Z,12.91
2019-05-17T07:45:31.940Z,13.65
2019-05-17T07:47:06.527Z,14.78
2019-05-17T07:48:06.464Z,14.48
2019-05-17T07:49:06.503Z,14.15
2019-05-17T07:50:06.480Z,13.87
2019-05-17T07:51:06.441Z,13.50
2019-05-17T07:52:06.442Z,13.37
2019-05-17T07:53:06.411Z,12.98
2019-05-17T07:54:06.409Z,12.58
2019-05-17T07:55:06.418Z,12.55
2019-05-17T07:56:06.381Z,12.65
2019-05-17T07:57:06.384Z,12.86
2019-05-17T07:58:06.403Z,12.91
2019-05-17T07:59:06.360Z,12.80
2019-05-17T08:00:06.339Z,12.91
2019-05-17T08:01:06.349Z,13.04
2019-05-17T08:02:06.319Z,13.12
2019-05-17T08:03:06.303Z,13.18
2019-05-17T08:04:06.307Z,13.47
2019-05-17T08:05:06.315Z,13.60
2019-05-17T08:06:06.327Z,13.78
2019-05-17T08:07:06.285Z,13.97
2019-05-17T08:08:06.284Z,14.03
2019-05-17T08:09:06.257Z,13.83
2019-05-17T08:10:06.247Z,13.92
2019-05-17T08:11:06.252Z,13.85
2019-05-17T08:12:06.239Z,13.75
2019-05-17T08:13:06.221Z,14.07
2019-05-17T08:14:06.187Z,13.99
2019-05-17T08:15:06.186Z,14.17
2019-05-17T08:16:06.187Z,14.11
2019-05-17T08:17:06.168Z,14.10
2019-05-17T08:18:06.197Z,14.14
2019-05-17T08:19:06.149Z,14.50
2019-05-17T08:20:06.161Z,14.32
2019-05-17T08:21:06.151Z,14.35
2019-05-17T08:22:06.114Z,14.40
2019-05-17T08:23:06.093Z,14.47
2019-05-17T08:24:06.118Z,14.86
2019-05-17T08:25:06.139Z,15.28
2019-05-17T08:26:06.105Z,15.37
2019-05-17T08:27:06.064Z,15.43
2019-05-17T08:28:06.059Z,15.33
2019-05-17T08:29:06.041Z,15.27
2019-05-17T08:30:06.048Z,15.52
2019-05-17T08:31:06.033Z,15.72
2019-05-17T08:32:06.032Z,15.65
2019-05-17T08:33:06.008Z,15.58
2019-05-17T08:34:06.000Z,15.36
2019-05-17T08:35:05.966Z,15.75
2019-05-17T08:36:06.044Z,16.16
2019-05-17T08:37:05.952Z,16.56
2019-05-17T08:38:05.957Z,16.87
2019-05-17T08:39:06.050Z,17.76
2019-05-17T08:40:05.946Z,17.42
2019-05-17T08:41:05.915Z,17.06
2019-05-17T08:42:05.956Z,16.41
2019-05-17T08:43:05.914Z,15.72
2019-05-17T08:44:05.868Z,15.40
2019-05-17T08:45:05.960Z,15.04
2019-05-17T08:46:05.856Z,14.69
2019-05-17T08:47:05.857Z,14.53
2019-05-17T08:48:05.970Z,14.45
2019-05-17T08:49:05.824Z,14.28
2019-05-17T08:50:05.812Z,14.44
2019-05-17T08:51:05.864Z,14.45
2019-05-17T08:52:05.791Z,14.58
2019-05-17T08:53:05.822Z,14.45
2019-05-17T08:54:05.838Z,14.65
2019-05-17T08:55:05.817Z,14.37
2019-05-17T08:56:05.777Z,14.48
2019-05-17T08:57:05.776Z,14.41
2019-05-17T08:58:05.851Z,14.72
2019-05-17T08:59:05.719Z,15.10
2019-05-17T09:00:05.716Z,15.15
2019-05-17T09:01:05.688Z,15.40
2019-05-17T09:02:05.695Z,15.24
2019-05-17T09:03:05.690Z,15.29
2019-05-17T09:04:05.694Z,15.31
2019-05-17T09:05:05.694Z,15.46
2019-05-17T09:06:05.653Z,15.47
2019-05-17T09:07:05.626Z,15.62
2019-05-17T09:08:05.630Z,15.49
2019-05-17T09:09:05.624Z,15.25
2019-05-17T09:10:05.604Z,15.29
2019-05-17T09:11:05.588Z,15.31
2019-05-17T09:12:05.570Z,15.21
2019-05-17T09:13:05.560Z,15.11
2019-05-17T09:14:05.595Z,14.92
2019-05-17T09:15:05.604Z,14.84
2019-05-17T09:16:05.522Z,14.88
2019-05-17T09:17:05.503Z,15.06
2019-05-17T09:18:05.579Z,15.31
2019-05-17T09:19:05.526Z,15.35
2019-05-17T09:20:05.515Z,15.28
2019-05-17T09:21:05.508Z,15.40
2019-05-17T09:22:05.474Z,15.42
2019-05-17T09:23:05.489Z,15.44
2019-05-17T09:24:05.504Z,15.55
2019-05-17T09:25:05.439Z,15.75
2019-05-17T09:26:05.481Z,15.77
2019-05-17T09:27:05.422Z,15.59
2019-05-17T09:28:05.414Z,15.47
2019-05-17T09:29:05.388Z,15.33
2019-05-17T09:30:05.380Z,15.36
2019-05-17T09:31:05.367Z,15.55
2019-05-17T09:32:05.454Z,15.52
2019-05-17T09:33:05.375Z,15.37
2019-05-17T09:34:05.341Z,15.17
2019-05-17T09:35:05.461Z,15.15
2019-05-17T09:36:05.318Z,15.22
2019-05-17T09:37:05.301Z,15.36
2019-05-17T09:38:05.376Z,15.44
2019-05-17T09:39:05.283Z,15.36
2019-05-17T09:40:05.279Z,15.21
2019-05-17T09:41:05.427Z,15.17
2019-05-17T09:42:05.259Z,15.27
2019-05-17T09:43:05.337Z,15.21
2019-05-17T09:44:13.074Z,15.24
2019-05-17T09:45:06.216Z,15.54
2019-05-17T09:46:05.216Z,15.57
2019-05-17T09:47:05.188Z,15.46
2019-05-17T09:48:05.225Z,15.42
2019-05-17T09:49:05.173Z,15.39
2019-05-17T09:50:05.167Z,15.40
2019-05-17T09:51:05.172Z,15.51
2019-05-17T09:52:05.133Z,15.49
2019-05-17T09:53:05.178Z,15.46
2019-05-17T09:54:05.158Z,15.35
2019-05-17T09:55:05.108Z,15.07
2019-05-17T09:56:05.103Z,15.02
2019-05-17T09:57:05.111Z,15.25
2019-05-17T09:58:05.088Z,15.35
2019-05-17T09:59:05.070Z,15.31
2019-05-17T10:00:05.083Z,15.22
2019-05-17T10:01:05.054Z,15.00
2019-05-17T10:02:05.020Z,15.07
2019-05-17T10:03:05.023Z,15.25
2019-05-17T10:04:05.032Z,15.37
2019-05-17T10:05:05.056Z,15.47
2019-05-17T10:06:04.987Z,15.62
2019-05-17T10:07:04.971Z,15.91
2019-05-17T10:08:05.085Z,15.64
2019-05-17T10:09:05.006Z,15.64
2019-05-17T10:10:04.991Z,15.64
2019-05-17T10:11:08.935Z,15.67
2019-05-17T10:12:05.942Z,15.76
2019-05-17T10:13:04.947Z,15.92
2019-05-17T10:14:05.050Z,15.83
2019-05-17T10:15:04.937Z,15.76
2019-05-17T10:16:04.899Z,15.61
2019-05-17T10:17:04.983Z,15.43
2019-05-17T10:18:04.865Z,15.43
2019-05-17T10:19:04.852Z,15.36
2019-05-17T10:20:04.989Z,15.46
2019-05-17T10:21:04.857Z,15.52
2019-05-17T10:22:04.812Z,15.57
2019-05-17T10:23:04.915Z,15.65
2019-05-17T10:24:04.813Z,15.70
2019-05-17T10:25:04.843Z,15.76
2019-05-17T10:26:04.785Z,15.84
2019-05-17T10:27:04.811Z,15.77
2019-05-17T10:28:04.744Z,15.62
2019-05-17T10:29:04.762Z,15.35
2019-05-17T10:30:04.738Z,15.21
2019-05-17T10:31:04.723Z,15.11
2019-05-17T10:32:04.773Z,15.17
2019-05-17T10:33:04.691Z,15.25
2019-05-17T10:34:04.718Z,15.25
2019-05-17T10:35:04.709Z,15.28
2019-05-17T10:36:04.669Z,15.22
2019-05-17T10:37:04.900Z,15.29
2019-05-17T10:38:04.675Z,15.24
2019-05-17T10:39:04.639Z,15.25
2019-05-17T10:40:04.636Z,15.06
2019-05-17T10:41:04.629Z,14.96
2019-05-17T10:42:04.673Z,14.94
2019-05-17T10:43:04.651Z,14.84
2019-05-17T10:44:04.587Z,14.66
2019-05-17T10:45:04.788Z,14.45
2019-05-17T10:46:04.574Z,14.32
2019-05-17T10:47:04.538Z,14.20
2019-05-17T10:48:04.801Z,14.17
2019-05-17T10:49:04.516Z,14.26
2019-05-17T10:50:04.522Z,14.26
2019-05-17T10:51:04.669Z,14.37
2019-05-17T10:52:04.535Z,14.45
2019-05-17T10:53:04.480Z,14.62
2019-05-17T10:54:04.636Z,14.68
2019-05-17T10:55:04.486Z,14.82
2019-05-17T10:56:04.458Z,14.92
2019-05-17T10:57:04.515Z,14.85
2019-05-17T10:58:04.480Z,14.78
2019-05-17T10:59:04.459Z,14.55
2019-05-17T11:00:04.500Z,14.58
2019-05-17T11:01:04.391Z,14.54
2019-05-17T11:02:04.377Z,14.55
2019-05-17T11:03:04.478Z,14.54
2019-05-17T11:04:04.386Z,14.65
2019-05-17T11:05:04.382Z,14.89
2019-05-17T11:06:04.440Z,15.06
2019-05-17T11:07:04.408Z,15.17
2019-05-17T11:08:04.317Z,15.06
2019-05-17T11:09:04.315Z,15.17
2019-05-17T11:10:04.394Z,15.28
2019-05-17T11:11:04.284Z,15.43
2019-05-17T11:12:04.290Z,15.39
2019-05-17T11:13:04.277Z,15.42
2019-05-17T11:14:04.296Z,15.40
2019-05-17T11:15:11.214Z,15.49
2019-05-17T11:16:05.255Z,15.47
2019-05-17T11:17:04.233Z,15.43
2019-05-17T11:18:04.226Z,15.43
2019-05-17T11:19:04.343Z,15.51
2019-05-17T11:20:04.207Z,15.39
2019-05-17T11:21:04.225Z,15.42
2019-05-17T11:22:04.363Z,15.49
2019-05-17T11:23:04.197Z,15.33
2019-05-17T11:24:04.183Z,15.17
2019-05-17T11:25:04.222Z,15.14
2019-05-17T11:26:04.134Z,15.09
2019-05-17T11:27:04.148Z,15.24
2019-05-17T11:28:04.193Z,15.24
2019-05-17T11:29:04.142Z,15.35
2019-05-17T11:30:04.092Z,15.44
2019-05-17T11:31:04.129Z,15.51
2019-05-17T11:32:04.139Z,15.52
2019-05-17T11:33:04.062Z,15.57
2019-05-17T11:34:04.028Z,15.59
2019-05-17T11:35:04.079Z,15.58
2019-05-17T11:36:04.055Z,15.57
2019-05-17T11:37:04.022Z,15.44
2019-05-17T11:38:04.000Z,15.35
2019-05-17T11:39:04.005Z,15.00
2019-05-17T11:40:03.969Z,14.79
2019-05-17T11:41:19.861Z,14.68
2019-05-17T11:42:05.004Z,14.54
2019-05-17T11:43:03.937Z,14.59
2019-05-17T11:44:03.930Z,14.51
2019-05-17T11:45:03.917Z,14.43
2019-05-17T11:46:03.918Z,14.26
2019-05-17T11:47:03.920Z,14.26
2019-05-17T11:48:03.962Z,14.35
2019-05-17T11:49:03.868Z,14.48
2019-05-17T11:50:03.887Z,14.65
2019-05-17T11:51:03.935Z,14.91
2019-05-17T11:52:03.846Z,15.03
2019-05-17T11:53:03.894Z,15.11
2019-05-17T11:54:03.872Z,15.27
2019-05-17T11:55:03.815Z,15.40
2019-05-17T11:56:03.855Z,15.44
2019-05-17T11:57:03.886Z,15.42
2019-05-17T11:58:03.816Z,15.29
2019-05-17T11:59:03.815Z,15.44
2019-05-17T12:00:03.844Z,15.68
2019-05-17T12:01:03.752Z,15.83
2019-05-17T12:02:03.755Z,16.12
2019-05-17T12:03:03.951Z,16.38
2019-05-17T12:04:03.734Z,16.46
2019-05-17T12:05:03.704Z,16.60
2019-05-17T12:06:03.751Z,16.83
2019-05-17T12:07:03.685Z,17.22
2019-05-17T12:08:03.756Z,17.41
2019-05-17T12:09:03.815Z,17.76
2019-05-17T12:10:03.664Z,17.80
2019-05-17T12:11:03.649Z,18.08
2019-05-17T12:12:03.719Z,18.23
2019-05-17T12:13:03.647Z,18.11
2019-05-17T12:14:03.630Z,18.59
2019-05-17T12:15:03.642Z,19.04
2019-05-17T12:16:03.682Z,19.00
2019-05-17T12:17:03.587Z,18.33
2019-05-17T12:18:03.606Z,18.59
2019-05-17T12:19:03.578Z,18.92
2019-05-17T12:20:03.572Z,18.74
2019-05-17T12:21:03.535Z,18.28
2019-05-17T12:22:03.528Z,18.73
2019-05-17T12:23:03.516Z,19.44
2019-05-17T12:24:03.498Z,20.19
2019-05-17T12:25:03.508Z,19.16
2019-05-17T12:26:03.521Z,18.23
2019-05-17T12:27:03.552Z,17.92
2019-05-17T12:28:03.479Z,18.60
2019-05-17T12:29:03.468Z,19.41
2019-05-17T12:30:03.479Z,18.80
2019-05-17T12:31:03.438Z,18.68
2019-05-17T12:32:03.455Z,18.92
2019-05-17T12:33:03.464Z,19.22
2019-05-17T12:34:03.573Z,18.89
2019-05-17T12:35:03.571Z,18.74
2019-05-17T12:36:03.454Z,18.43
2019-05-17T12:37:03.437Z,17.82
2019-05-17T12:38:03.365Z,17.42
2019-05-17T12:39:03.362Z,17.45
2019-05-17T12:40:03.431Z,17.41
2019-05-17T12:41:03.445Z,16.75
2019-05-17T12:42:03.392Z,16.51
2019-05-17T12:43:03.324Z,16.53
2019-05-17T12:44:03.376Z,16.29
2019-05-17T12:45:03.316Z,16.00
2019-05-17T12:46:03.303Z,15.97
2019-05-17T12:47:03.264Z,15.94
2019-05-17T12:48:03.267Z,15.88
2019-05-17T12:49:03.256Z,15.91
2019-05-17T12:50:03.235Z,15.91
2019-05-17T12:51:03.246Z,15.94
2019-05-17T12:52:03.216Z,15.75
2019-05-17T12:53:03.219Z,15.75
2019-05-17T12:54:03.201Z,15.84
2019-05-17T12:55:03.168Z,16.01
2019-05-17T12:56:03.207Z,16.00
2019-05-17T12:57:04.838Z,15.92
2019-05-17T12:58:03.141Z,16.12
2019-05-17T12:59:03.179Z,16.01
2019-05-17T13:00:03.372Z,16.24
2019-05-17T13:01:03.105Z,16.47
2019-05-17T13:02:03.145Z,16.58
2019-05-17T13:03:03.201Z,16.54
2019-05-17T13:04:03.090Z,16.58
2019-05-17T13:05:03.062Z,16.66
2019-05-17T13:06:03.205Z,16.32
2019-05-17T13:07:03.116Z,16.12
2019-05-17T13:08:03.044Z,15.94
2019-05-17T13:09:03.121Z,15.83
2019-05-17T13:10:03.037Z,15.86
2019-05-17T13:11:03.011Z,16.00
2019-05-17T13:12:03.120Z,16.05
2019-05-17T13:13:02.979Z,16.15
2019-05-17T13:14:03.052Z,16.31
2019-05-17T13:15:02.982Z,16.38
2019-05-17T13:16:16.782Z,16.36
2019-05-17T13:17:04.029Z,16.50
2019-05-17T13:18:02.953Z,16.58
2019-05-17T13:19:02.928Z,16.65
2019-05-17T13:20:03.207Z,16.46
2019-05-17T13:21:02.906Z,16.32
2019-05-17T13:22:02.958Z,16.16
2019-05-17T13:23:03.279Z,16.00
2019-05-17T13:24:03.707Z,15.70
2019-05-17T13:25:02.932Z,15.59
2019-05-17T13:26:02.899Z,15.51
2019-05-17T13:27:02.853Z,15.55
2019-05-17T13:28:02.997Z,15.59
2019-05-17T13:29:02.811Z,15.68
2019-05-17T13:30:02.863Z,15.72
2019-05-17T13:31:02.929Z,15.49
2019-05-17T13:32:02.788Z,15.39
2019-05-17T13:33:02.795Z,15.22
2019-05-17T13:34:02.850Z,15.15
2019-05-17T13:35:02.756Z,15.22
2019-05-17T13:36:02.731Z,15.40
2019-05-17T13:37:02.777Z,15.49
2019-05-17T13:38:02.709Z,15.36
2019-05-17T13:39:02.751Z,15.39
2019-05-17T13:40:02.689Z,15.39
2019-05-17T13:41:02.688Z,15.35
2019-05-17T13:42:02.691Z,15.46
2019-05-17T13:43:02.666Z,15.62
2019-05-17T13:44:02.708Z,15.77
2019-05-17T13:45:02.629Z,16.01
2019-05-17T13:46:02.637Z,16.17
2019-05-17T13:47:02.640Z,16.39
2019-05-17T13:48:02.624Z,16.93
2019-05-17T13:49:02.624Z,17.27
2019-05-17T13:50:02.600Z,17.76
2019-05-17T13:51:02.600Z,18.01
2019-05-17T13:52:02.678Z,18.16
2019-05-17T13:53:02.550Z,18.41
2019-05-17T13:54:02.580Z,19.08
2019-05-17T13:55:02.532Z,19.70
2019-05-17T13:56:02.517Z,20.69
2019-05-17T13:57:02.496Z,21.07
2019-05-17T13:58:02.515Z,21.06
2019-05-17T13:59:02.505Z,20.90
2019-05-17T14:00:02.468Z,20.74
2019-05-17T14:01:02.509Z,19.76
2019-05-17T14:02:02.467Z,19.04
2019-05-17T14:03:02.456Z,18.60
2019-05-17T14:04:02.473Z,18.23
2019-05-17T14:05:02.497Z,18.00
2019-05-17T14:06:02.417Z,17.68
2019-05-17T14:07:02.405Z,17.83
2019-05-17T14:08:02.428Z,17.67
2019-05-17T14:09:02.398Z,17.65
2019-05-17T14:10:02.577Z,17.45
2019-05-17T14:11:02.456Z,17.45
2019-05-17T14:12:02.424Z,17.16
2019-05-17T14:13:02.369Z,17.01
2019-05-17T14:14:02.424Z,17.06
2019-05-17T14:15:04.184Z,17.14
2019-05-17T14:16:02.319Z,17.30
2019-05-17T14:17:02.421Z,17.72
2019-05-17T14:18:02.287Z,18.08
2019-05-17T14:19:02.272Z,18.22
2019-05-17T14:20:02.298Z,18.50
2019-05-17T14:21:02.295Z,18.73
2019-05-17T14:22:02.267Z,18.89
2019-05-17T14:23:02.248Z,19.08
2019-05-17T14:24:02.246Z,19.40
2019-05-17T14:25:02.208Z,19.39
2019-05-17T14:26:02.221Z,19.36
2019-05-17T14:27:02.187Z,18.95
2019-05-17T14:28:02.177Z,18.93
2019-05-17T14:29:02.173Z,18.74
2019-05-17T14:30:02.193Z,18.07
2019-05-17T14:31:02.184Z,17.89
2019-05-17T14:32:02.214Z,17.78
2019-05-17T14:33:02.148Z,17.64
2019-05-17T14:34:02.129Z,17.54
2019-05-17T14:35:02.121Z,17.60
2019-05-17T14:36:02.178Z,17.67
2019-05-17T14:37:02.115Z,17.68
2019-05-17T14:38:02.060Z,17.79
2019-05-17T14:39:02.065Z,17.87
2019-05-17T14:40:02.045Z,17.97
2019-05-17T14:41:07.889Z,17.85
2019-05-17T14:42:03.075Z,17.68
2019-05-17T14:43:02.026Z,17.71
2019-05-17T14:44:02.006Z,17.70
2019-05-17T14:45:02.020Z,17.85
2019-05-17T14:46:01.978Z,17.97
2019-05-17T14:47:01.994Z,18.13
2019-05-17T14:48:02.030Z,18.19
2019-05-17T14:49:01.969Z,18.40
2019-05-17T14:50:02.053Z,18.04
2019-05-17T14:51:01.939Z,17.85
2019-05-17T14:52:01.914Z,17.98
2019-05-17T14:53:01.956Z,18.16
2019-05-17T14:54:01.896Z,18.13
2019-05-17T14:55:02.284Z,17.94
2019-05-17T14:56:01.883Z,17.78
2019-05-17T14:57:01.871Z,17.64
2019-05-17T14:58:01.886Z,17.49
2019-05-17T14:59:01.856Z,17.46
2019-05-17T15:00:01.821Z,17.24
2019-05-17T15:01:01.929Z,16.86
2019-05-17T15:02:01.822Z,16.75
2019-05-17T15:03:01.806Z,16.53
2019-05-17T15:04:01.840Z,16.58
2019-05-17T15:05:02.629Z,16.58
2019-05-17T15:06:01.776Z,16.57
2019-05-17T15:07:01.743Z,16.56
2019-05-17T15:08:01.802Z,16.57
2019-05-17T15:09:01.758Z,16.42
2019-05-17T15:10:01.719Z,16.69
2019-05-17T15:11:01.706Z,16.99
2019-05-17T15:12:01.726Z,17.16
2019-05-17T15:13:01.839Z,17.19
2019-05-17T15:14:01.664Z,17.24
2019-05-17T15:15:01.709Z,17.31
2019-05-17T15:16:01.685Z,17.38
2019-05-17T15:17:01.707Z,17.11
2019-05-17T15:18:01.642Z,17.01
2019-05-17T15:19:01.633Z,16.76
2019-05-17T15:20:01.643Z,16.51
2019-05-17T15:21:01.614Z,16.47
2019-05-17T15:22:01.620Z,16.24
2019-05-17T15:23:01.591Z,16.26
2019-05-17T15:24:01.575Z,16.20
2019-05-17T15:25:02.017Z,16.16
2019-05-17T15:26:01.550Z,16.23
2019-05-17T15:27:05.820Z,16.31
2019-05-17T15:28:01.520Z,16.26
2019-05-17T15:29:01.543Z,15.97
2019-05-17T15:30:01.535Z,15.94
2019-05-17T15:31:01.499Z,16.00
2019-05-17T15:32:01.481Z,16.02
2019-05-17T15:33:01.483Z,15.84
2019-05-17T15:34:01.463Z,15.77
2019-05-17T15:35:01.494Z,15.70
2019-05-17T15:36:01.451Z,15.55
2019-05-17T15:37:01.416Z,15.39
2019-05-17T15:38:01.456Z,15.25
2019-05-17T15:39:01.466Z,15.28
2019-05-17T15:40:01.407Z,15.35
2019-05-17T15:41:01.457Z,15.29
2019-05-17T15:42:01.430Z,15.27
2019-05-17T15:43:01.371Z,15.22
2019-05-17T15:44:01.368Z,15.15
2019-05-17T15:45:01.367Z,15.09
2019-05-17T15:46:01.379Z,15.06
2019-05-17T15:47:01.326Z,15.03
2019-05-17T15:48:01.308Z,14.97
2019-05-17T15:49:01.317Z,14.94
2019-05-17T15:50:01.298Z,14.94
2019-05-17T15:51:01.544Z,14.88
2019-05-17T15:52:01.309Z,14.91
2019-05-17T15:53:01.302Z,14.88
2019-05-17T15:54:01.246Z,14.85
2019-05-17T15:55:01.230Z,14.82
2019-05-17T15:56:01.217Z,14.79
2019-05-17T15:57:01.227Z,14.84
2019-05-17T15:58:01.343Z,14.85
2019-05-17T15:59:01.195Z,14.85
2019-05-17T16:00:01.189Z,14.84
2019-05-17T16:01:01.202Z,14.84
2019-05-17T16:02:01.189Z,14.92
2019-05-17T16:03:01.167Z,14.86
2019-05-17T16:04:01.138Z,14.86
2019-05-17T16:05:01.124Z,14.94
2019-05-17T16:06:01.120Z,15.04
2019-05-17T16:07:01.194Z,15.03
2019-05-17T16:08:01.111Z,15.11
2019-05-17T16:09:01.084Z,15.15
2019-05-17T16:10:01.069Z,15.17
2019-05-17T16:11:01.063Z,15.25
2019-05-17T16:12:01.101Z,15.31
2019-05-17T16:13:03.197Z,15.44
2019-05-17T16:14:01.032Z,15.36
2019-05-17T16:15:01.025Z,15.33
2019-05-17T16:16:01.004Z,15.28
2019-05-17T16:17:01.035Z,15.27
2019-05-17T16:18:00.988Z,15.25
2019-05-17T16:19:00.983Z,15.35
2019-05-17T16:20:00.962Z,15.46
2019-05-17T16:21:00.950Z,15.54
2019-05-17T16:22:00.992Z,15.62
2019-05-17T16:23:00.921Z,15.43
2019-05-17T16:24:00.926Z,15.40
2019-05-17T16:25:00.902Z,15.42
2019-05-17T16:26:00.919Z,15.46
2019-05-17T16:27:00.953Z,15.59
2019-05-17T16:28:00.895Z,15.55
2019-05-17T16:29:00.929Z,15.57
2019-05-17T16:30:01.791Z,15.55
2019-05-17T16:31:00.920Z,15.49
2019-05-17T16:32:00.881Z,15.52
2019-05-17T16:33:00.836Z,15.44
2019-05-17T16:34:00.818Z,15.44
2019-05-17T16:35:00.829Z,15.52
2019-05-17T16:36:00.814Z,15.52
2019-05-17T16:37:00.818Z,15.43
2019-05-17T16:38:00.767Z,15.35
2019-05-17T16:39:00.783Z,15.33
2019-05-17T16:40:00.758Z,15.27
2019-05-17T16:41:01.158Z,15.19
2019-05-17T16:42:00.736Z,15.18
2019-05-17T16:43:00.737Z,15.21
2019-05-17T16:44:00.696Z,15.17
2019-05-17T16:45:00.715Z,15.07
2019-05-17T16:46:00.678Z,14.99
2019-05-17T16:47:00.690Z,14.88
2019-05-17T16:48:00.675Z,14.81
2019-05-17T16:49:00.714Z,14.84
2019-05-17T16:50:00.635Z,14.89
2019-05-17T16:51:00.628Z,14.84
2019-05-17T16:52:00.620Z,14.89
2019-05-17T16:53:06.026Z,14.96
2019-05-17T16:54:01.611Z,14.94
2019-05-17T16:55:00.606Z,14.89
2019-05-17T16:56:00.586Z,14.92
2019-05-17T16:57:00.590Z,14.94
2019-05-17T16:58:00.572Z,14.88
2019-05-17T16:59:00.569Z,14.86
2019-05-17T17:00:00.534Z,14.84
2019-05-17T17:01:03.502Z,14.79
2019-05-17T17:02:00.515Z,14.77
2019-05-17T17:03:00.516Z,14.73
2019-05-17T17:04:00.512Z,14.78
2019-05-17T17:05:00.481Z,14.78
2019-05-17T17:06:00.474Z,14.82
2019-05-17T17:07:00.472Z,14.82
2019-05-17T17:08:00.450Z,14.84
2019-05-17T17:09:00.423Z,14.82
2019-05-17T17:10:00.439Z,14.77
2019-05-17T17:11:00.437Z,14.73
2019-05-17T17:12:00.404Z,14.73
2019-05-17T17:13:00.397Z,14.82
2019-05-17T17:14:00.394Z,14.77
2019-05-17T17:15:00.394Z,14.78
2019-05-17T17:16:00.349Z,14.77
2019-05-17T17:17:00.351Z,14.79
2019-05-17T17:18:00.545Z,14.78
2019-05-17T17:19:00.329Z,14.79
2019-05-17T17:20:00.315Z,14.79
2019-05-17T17:21:00.336Z,14.81
2019-05-17T17:22:00.301Z,14.86
2019-05-17T17:23:00.278Z,14.89
2019-05-17T17:24:00.264Z,14.96
2019-05-17T17:25:00.271Z,14.86
2019-05-17T17:26:00.261Z,14.86
2019-05-17T17:27:00.229Z,14.79
2019-05-17T17:28:00.232Z,14.79
2019-05-17T17:29:00.221Z,14.78
2019-05-17T17:30:00.210Z,14.73
2019-05-17T17:31:00.232Z,14.78
2019-05-17T17:32:00.195Z,14.79
2019-05-17T17:33:00.179Z,14.72
2019-05-17T17:34:00.160Z,14.65
2019-05-17T17:35:00.156Z,14.62
2019-05-17T17:36:00.194Z,14.62
2019-05-17T17:37:00.130Z,14.60
2019-05-17T17:38:00.137Z,14.60
2019-05-17T17:39:00.105Z,14.60
2019-05-17T17:40:00.131Z,14.54
2019-05-17T17:41:00.106Z,14.47
2019-05-17T17:42:00.117Z,14.45
2019-05-17T17:43:00.066Z,14.44
2019-05-17T17:44:00.055Z,14.43
2019-05-17T17:45:00.044Z,14.43
2019-05-17T17:46:00.058Z,14.40
2019-05-17T17:47:00.035Z,14.43
2019-05-17T17:48:00.025Z,14.44
2019-05-17T17:49:00.015Z,14.45
2019-05-17T17:49:59.985Z,14.45
2019-05-17T17:51:00.001Z,14.36
2019-05-17T17:51:59.988Z,14.37
2019-05-17T17:52:59.966Z,14.37
2019-05-17T17:53:59.974Z,14.33
2019-05-17T17:54:59.971Z,14.30
2019-05-17T17:55:59.924Z,14.29
2019-05-17T17:56:59.917Z,14.29
2019-05-17T17:57:59.921Z,14.29
2019-05-17T17:58:59.952Z,14.23
2019-05-17T17:59:59.877Z,14.22
2019-05-17T18:00:59.890Z,14.18
2019-05-17T18:01:59.885Z,14.18
2019-05-17T18:02:59.894Z,14.15
2019-05-17T18:03:59.859Z,14.12
2019-05-17T18:04:59.839Z,14.07
2019-05-17T18:05:59.822Z,14.05
2019-05-17T18:06:59.813Z,14.00
2019-05-17T18:07:59.829Z,13.99
2019-05-17T18:08:59.791Z,13.97
2019-05-17T18:09:59.766Z,13.96
2019-05-17T18:10:59.780Z,13.90
2019-05-17T18:11:59.772Z,13.89
2019-05-17T18:12:59.750Z,13.89
2019-05-17T18:14:12.413Z,13.86
2019-05-17T18:15:03.416Z,13.79
2019-05-17T18:16:00.723Z,13.77
2019-05-17T18:16:59.722Z,13.71
2019-05-17T18:17:59.708Z,13.70
2019-05-17T18:18:59.699Z,13.65
2019-05-17T18:19:59.675Z,13.59
2019-05-17T18:20:59.658Z,13.56
2019-05-17T18:21:59.653Z,13.53
2019-05-17T18:22:59.638Z,13.52
2019-05-17T18:23:59.652Z,13.47
2019-05-17T18:24:59.608Z,13.42
2019-05-17T18:25:59.679Z,13.39
2019-05-17T18:26:59.598Z,13.35
2019-05-17T18:27:59.582Z,13.30
2019-05-17T18:28:59.622Z,13.28
2019-05-17T18:29:59.575Z,13.23
2019-05-17T18:30:59.561Z,13.19
2019-05-17T18:31:59.546Z,13.16
2019-05-17T18:32:59.538Z,13.13
2019-05-17T18:33:59.553Z,13.12
2019-05-17T18:34:59.535Z,13.08
2019-05-17T18:35:59.487Z,13.04
2019-05-17T18:36:59.489Z,13.00
2019-05-17T18:37:59.481Z,12.95
2019-05-17T18:38:59.460Z,12.93
2019-05-17T18:39:59.485Z,12.91
2019-05-17T18:40:59.454Z,12.87
2019-05-17T18:41:59.450Z,12.87
2019-05-17T18:42:59.436Z,12.86
2019-05-17T18:43:59.414Z,12.79
2019-05-17T18:44:59.422Z,12.76
2019-05-17T18:45:59.386Z,12.73
2019-05-17T18:46:59.403Z,12.72
2019-05-17T18:47:59.397Z,12.73
2019-05-17T18:48:59.365Z,12.73
2019-05-17T18:49:59.346Z,12.73
2019-05-17T18:50:59.413Z,12.72
2019-05-17T18:51:59.330Z,12.70
2019-05-17T18:53:15.983Z,12.70
2019-05-17T18:54:00.335Z,12.68
2019-05-17T18:54:59.312Z,12.67
2019-05-17T18:55:59.314Z,12.62
2019-05-17T18:56:59.269Z,12.61
2019-05-17T18:57:59.266Z,12.62
2019-05-17T18:58:59.250Z,12.62
2019-05-17T18:59:59.249Z,12.65
2019-05-17T19:00:59.275Z,12.65
2019-05-17T19:01:59.222Z,12.70
2019-05-17T19:02:59.207Z,12.72
2019-05-17T19:03:59.204Z,12.72
2019-05-17T19:04:59.187Z,12.72
2019-05-17T19:05:59.161Z,12.70
2019-05-17T19:06:59.182Z,12.67
2019-05-17T19:07:59.142Z,12.65
2019-05-17T19:08:59.146Z,12.62
2019-05-17T19:09:59.131Z,12.61
2019-05-17T19:10:59.134Z,12.60
2019-05-17T19:11:59.143Z,12.58
2019-05-17T19:12:59.099Z,12.58
2019-05-17T19:13:59.080Z,12.58
2019-05-17T19:15:00.696Z,12.57
2019-05-17T19:15:59.080Z,12.62
2019-05-17T19:16:59.091Z,12.65
2019-05-17T19:17:59.067Z,12.68
2019-05-17T19:18:59.048Z,12.67
2019-05-17T19:19:59.034Z,12.67
2019-05-17T19:20:59.017Z,12.64
2019-05-17T19:21:59.036Z,12.64
2019-05-17T19:22:59.056Z,12.64
2019-05-17T19:23:58.978Z,12.65
2019-05-17T19:24:59.004Z,12.65
2019-05-17T19:25:58.974Z,12.65
2019-05-17T19:26:59.022Z,12.68
2019-05-17T19:27:58.955Z,12.64
2019-05-17T19:28:58.944Z,12.60
2019-05-17T19:29:58.915Z,12.57
2019-05-17T19:30:58.902Z,12.57
2019-05-17T19:31:58.943Z,12.57
2019-05-17T19:32:59.027Z,12.53
2019-05-17T19:33:58.864Z,12.46
2019-05-17T19:34:58.888Z,12.43
2019-05-17T19:35:58.875Z,12.40
2019-05-17T19:36:58.908Z,12.43
2019-05-17T19:37:58.875Z,12.42
2019-05-17T19:38:58.827Z,12.40
2019-05-17T19:39:58.812Z,12.42
2019-05-17T19:40:58.812Z,12.39
2019-05-17T19:41:58.784Z,12.37
2019-05-17T19:42:58.775Z,12.32
2019-05-17T19:43:58.792Z,12.35
2019-05-17T19:44:59.617Z,12.32
2019-05-17T19:45:58.752Z,12.29
2019-05-17T19:46:58.747Z,12.28
2019-05-17T19:47:58.734Z,12.28
2019-05-17T19:48:58.740Z,12.25
2019-05-17T19:49:58.794Z,12.25
2019-05-17T19:50:58.730Z,12.22
2019-05-17T19:51:58.707Z,12.18
2019-05-17T19:52:58.698Z,12.15
2019-05-17T19:53:58.725Z,12.15
2019-05-17T19:54:58.658Z,12.15
2019-05-17T19:55:58.647Z,12.12
2019-05-17T19:56:58.639Z,12.10
2019-05-17T19:57:58.628Z,12.09
2019-05-17T19:58:58.709Z,12.07
2019-05-17T19:59:58.657Z,12.06
2019-05-17T20:00:58.671Z,12.06
2019-05-17T20:01:58.694Z,12.04
2019-05-17T20:02:58.559Z,12.00
2019-05-17T20:03:58.563Z,11.99
2019-05-17T20:04:58.587Z,11.95
2019-05-17T20:05:58.527Z,11.91
2019-05-17T20:06:58.520Z,11.95
2019-05-17T20:07:58.526Z,12.02
2019-05-17T20:08:58.510Z,12.02
2019-05-17T20:09:58.501Z,11.99
2019-05-17T20:10:58.512Z,12.00
2019-05-17T20:11:58.484Z,11.99
2019-05-17T20:12:58.527Z,11.94
2019-05-17T20:13:58.445Z,11.91
2019-05-17T20:15:14.415Z,11.87
2019-05-17T20:15:59.475Z,11.81
2019-05-17T20:16:58.422Z,11.77
2019-05-17T20:17:58.408Z,11.73
2019-05-17T20:18:58.426Z,11.70
2019-05-17T20:19:58.389Z,11.68
2019-05-17T20:20:58.405Z,11.72
2019-05-17T20:21:58.361Z,11.73
2019-05-17T20:22:58.354Z,11.75
2019-05-17T20:23:58.349Z,11.78
2019-05-17T20:24:58.368Z,11.81
2019-05-17T20:25:58.351Z,11.77
2019-05-17T20:26:58.363Z,11.73
2019-05-17T20:27:58.295Z,11.73
2019-05-17T20:28:58.283Z,11.75
2019-05-17T20:29:58.367Z,11.75
2019-05-17T20:30:58.289Z,11.69
2019-05-17T20:31:58.283Z,11.65
2019-05-17T20:32:58.309Z,11.60
2019-05-17T20:33:58.277Z,11.62
2019-05-17T20:34:58.231Z,11.63
2019-05-17T20:35:58.222Z,11.62
2019-05-17T20:36:58.189Z,11.60